Time;durP1;ratioP1;P1;durP2;ratioP2;P2;SDS_P1;SDS_P2;PMS_P1;PMS_P2;Temp;Humidity;BMP_temperature;BMP_pressure;BME280_temperature;BME280_humidity;BME280_pressure;Samples;Min_cycle;Max_cycle;Signal;HPM_P1;HPM_P2
2023/09/11 00:00:44;;;;;;;17.02;10.45;;;;;;;;;;5064781;28;20056;-62
2023/09/11 00:03:10;;;;;;;20.38;10.82;;;;;;;;;;5054404;28;20068;-63
2023/09/11 00:05:36;;;;;;;21.63;11.18;;;;;;;;;;5055300;28;20036;-62
2023/09/11 00:08:02;;;;;;;19.95;11.57;;;;;;;;;;5054587;28;20048;-62
2023/09/11 00:10:32;;;;;;;23.90;12.57;;;;;;;;;;5057839;28;20043;-64
2023/09/11 00:12:58;;;;;;;22.70;11.90;;;;;;;;;;5060839;28;20040;-63
2023/09/11 00:15:24;;;;;;;23.02;11.35;;;;;;;;;;5055295;28;20044;-63
2023/09/11 00:17:51;;;;;;;21.02;11.52;;;;;;;;;;5054496;28;20036;-62
2023/09/11 00:20:17;;;;;;;19.10;11.88;;;;;;;;;;5058152;28;20459;-63
2023/09/11 00:22:43;;;;;;;21.38;12.07;;;;;;;;;;5055952;28;20470;-63
2023/09/11 00:25:09;;;;;;;17.60;11.27;;;;;;;;;;5054738;28;20527;-64
2023/09/11 00:27:38;;;;;;;20.50;11.13;;;;;;;;;;5055386;28;20347;-65
2023/09/11 00:30:06;;;;;;;16.80;10.23;;;;;;;;;;5050740;28;20140;-62
2023/09/11 00:32:32;;;;;;;22.00;12.45;;;;;;;;;;5060828;28;20064;-63
2023/09/11 00:34:58;;;;;;;24.50;13.77;;;;;;;;;;5049842;28;20039;-63
2023/09/11 00:37:24;;;;;;;19.10;11.60;;;;;;;;;;5053539;28;20464;-63
2023/09/11 00:39:51;;;;;;;17.65;11.35;;;;;;;;;;5060811;28;20270;-63
2023/09/11 00:42:17;;;;;;;21.20;11.75;;;;;;;;;;5050909;28;20047;-63
2023/09/11 00:44:43;;;;;;;21.70;11.68;;;;;;;;;;5054220;28;20119;-62
2023/09/11 00:47:10;;;;;;;23.10;11.10;;;;;;;;;;5050144;28;20045;-63
2023/09/11 00:49:36;;;;;;;20.10;11.18;;;;;;;;;;5052943;28;20142;-63
2023/09/11 00:52:03;;;;;;;21.35;11.65;;;;;;;;;;5054308;28;20287;-63
2023/09/11 00:54:29;;;;;;;18.77;11.25;;;;;;;;;;5054287;28;20128;-63
2023/09/11 00:56:56;;;;;;;22.63;12.20;;;;;;;;;;5020411;28;20508;-63
2023/09/11 00:59:22;;;;;;;17.20;12.48;;;;;;;;;;5051561;28;20052;-63
2023/09/11 01:01:48;;;;;;;21.25;12.05;;;27.40;92.30;;;;;;5053635;28;20032;-64
2023/09/11 01:04:16;;;;;;;20.17;11.18;;;23.70;96.60;;;;;;5046364;28;20211;-63
2023/09/11 01:06:42;;;;;;;15.60;11.20;;;23.50;96.60;;;;;;5051712;28;20044;-63
2023/09/11 01:09:08;;;;;;;22.55;12.02;;;23.40;96.60;;;;;;5055408;28;20049;-63
2023/09/11 01:11:34;;;;;;;20.90;10.55;;;23.40;96.60;;;;;;5036075;28;20033;-62
2023/09/11 01:14:06;;;;;;;21.63;12.15;;;23.40;96.60;;;;;;5050410;28;20103;-62
2023/09/11 01:16:45;;;;;;;15.43;12.00;;;23.40;96.60;;;;;;5052308;28;20567;-62
2023/09/11 01:19:49;;;;;;;19.25;11.20;;;23.40;96.70;;;;;;5058972;28;20052;-61
2023/09/11 01:23:00;;;;;;;19.23;12.63;;;23.40;96.70;;;;;;5050544;28;20109;-62
2023/09/11 01:25:43;;;;;;;17.58;11.85;;;23.40;96.70;;;;;;5054521;28;20542;-62
2023/09/11 01:28:43;;;;;;;18.58;11.93;;;23.30;96.70;;;;;;5052628;28;20052;-62
2023/09/11 01:31:10;;;;;;;18.55;12.02;;;23.30;96.80;;;;;;5055294;28;20549;-62
2023/09/11 01:33:36;;;;;;;15.88;10.40;;;23.30;96.80;;;;;;5056391;28;20435;-64
2023/09/11 01:36:02;;;;;;;15.85;10.50;;;23.30;96.80;;;;;;5051708;28;20631;-62
2023/09/11 01:38:28;;;;;;;19.58;11.50;;;23.30;96.80;;;;;;5052853;28;20028;-63
2023/09/11 01:40:58;;;;;;;15.45;11.07;;;23.30;96.80;;;;;;5053490;28;20038;-63
2023/09/11 01:43:29;;;;;;;21.13;11.95;;;23.30;96.80;;;;;;5052806;28;20128;-62
2023/09/11 01:45:55;;;;;;;22.15;12.65;;;23.30;96.90;;;;;;5057987;28;20110;-62
2023/09/11 01:48:22;;;;;;;19.63;12.07;;;23.30;96.90;;;;;;5058533;28;20068;-62
2023/09/11 01:50:48;;;;;;;16.23;12.70;;;23.30;96.90;;;;;;5060383;28;20438;-63
2023/09/11 01:53:17;;;;;;;15.23;10.70;;;23.30;97.00;;;;;;5056141;28;20048;-62
2023/09/11 01:55:44;;;;;;;18.50;12.25;;;23.20;97.00;;;;;;5063851;28;20044;-63
2023/09/11 01:58:10;;;;;;;20.65;11.55;;;23.20;97.00;;;;;;5054070;28;20512;-62
2023/09/11 02:00:36;;;;;;;22.35;12.15;;;23.20;97.00;;;;;;5059907;28;20101;-64
2023/09/11 02:03:02;;;;;;;26.35;12.43;;;23.20;97.10;;;;;;5064232;28;20238;-63
2023/09/11 02:05:27;;;;;;;20.17;11.77;;;23.20;97.10;;;;;;5064804;28;20082;-63
2023/09/11 02:07:53;;;;;;;22.73;12.52;;;23.10;97.10;;;;;;5061151;28;20461;-63
2023/09/11 02:10:19;;;;;;;20.05;13.00;;;23.20;97.20;;;;;;5062169;28;20105;-63
2023/09/11 02:12:45;;;;;;;23.08;11.77;;;23.10;97.20;;;;;;5058035;28;20127;-63
2023/09/11 02:15:10;;;;;;;20.75;12.18;;;23.10;97.20;;;;;;5056769;28;20486;-63
2023/09/11 02:17:36;;;;;;;19.73;11.45;;;23.10;97.20;;;;;;5062325;28;20045;-62
2023/09/11 02:20:04;;;;;;;18.45;12.35;;;23.10;97.20;;;;;;5059239;28;20280;-63
2023/09/11 02:22:29;;;;;;;18.83;12.32;;;23.10;97.20;;;;;;5057503;28;20540;-63
2023/09/11 02:24:55;;;;;;;23.10;12.73;;;23.10;97.20;;;;;;5062134;28;20047;-62
2023/09/11 02:27:21;;;;;;;23.17;12.18;;;23.10;97.30;;;;;;5066031;28;20044;-62
2023/09/11 02:29:46;;;;;;;28.08;13.90;;;23.10;97.30;;;;;;5061468;28;20123;-62
2023/09/11 02:32:12;;;;;;;19.88;12.45;;;23.10;97.40;;;;;;5059622;28;20594;-63
2023/09/11 02:34:38;;;;;;;23.83;12.48;;;23.00;97.40;;;;;;5062170;28;20067;-62
2023/09/11 02:37:04;;;;;;;21.40;11.95;;;23.00;97.40;;;;;;5049239;28;20056;-64
2023/09/11 02:39:30;;;;;;;20.73;12.68;;;23.00;97.40;;;;;;5061765;28;20106;-63
2023/09/11 02:41:55;;;;;;;20.38;12.48;;;23.00;97.50;;;;;;5050061;28;20044;-63
2023/09/11 02:44:21;;;;;;;18.38;11.80;;;23.00;97.50;;;;;;5034222;28;20538;-62
2023/09/11 02:46:47;;;;;;;22.15;12.25;;;23.00;97.60;;;;;;5055509;28;20126;-62
2023/09/11 02:49:12;;;;;;;21.95;12.13;;;22.90;97.60;;;;;;5060070;28;20230;-62
2023/09/11 02:51:38;;;;;;;18.00;11.50;;;22.90;97.60;;;;;;5056875;28;20080;-63
2023/09/11 02:54:04;;;;;;;18.20;12.00;;;22.90;97.60;;;;;;5058723;28;20242;-63
2023/09/11 02:56:30;;;;;;;18.02;12.20;;;22.90;97.70;;;;;;5061856;28;20048;-63
2023/09/11 02:58:56;;;;;;;18.60;12.48;;;22.90;97.80;;;;;;5057128;28;20491;-63
2023/09/11 03:01:22;;;;;;;20.35;12.10;;;22.90;97.80;;;;;;5066102;28;20299;-62
2023/09/11 03:03:48;;;;;;;19.58;12.48;;;22.80;97.70;;;;;;5060619;28;20195;-62
2023/09/11 03:06:13;;;;;;;20.80;13.73;;;22.90;97.80;;;;;;5051093;28;20551;-63
2023/09/11 03:08:39;;;;;;;21.17;13.07;;;22.80;97.80;;;;;;5036619;28;20502;-64
2023/09/11 03:11:09;;;;;;;19.15;12.85;;;22.80;97.80;;;;;;5054456;28;20532;-63
2023/09/11 03:13:36;;;;;;;20.35;13.50;;;22.80;97.90;;;;;;5056478;28;20068;-63
2023/09/11 03:16:15;;;;;;;19.05;13.38;;;22.80;97.90;;;;;;5056712;28;20036;-62
2023/09/11 03:18:42;;;;;;;17.92;13.82;;;22.80;98.00;;;;;;5052365;28;20129;-63
2023/09/11 03:21:07;;;;;;;21.83;13.43;;;22.70;98.00;;;;;;5055889;28;20156;-63
2023/09/11 03:23:34;;;;;;;22.52;13.82;;;22.70;98.10;;;;;;5060982;28;20052;-63
2023/09/11 03:26:00;;;;;;;24.10;13.07;;;22.70;98.10;;;;;;5061878;28;20043;-62
2023/09/11 03:28:27;;;;;;;19.83;13.70;;;22.70;98.10;;;;;;5058746;28;20100;-63
2023/09/11 03:30:53;;;;;;;19.08;12.90;;;22.70;98.20;;;;;;5060284;28;20178;-62
2023/09/11 03:33:19;;;;;;;21.33;13.07;;;22.60;98.10;;;;;;5057089;28;20123;-63
2023/09/11 03:35:49;;;;;;;21.27;13.77;;;22.70;98.20;;;;;;5061979;28;20536;-63
2023/09/11 03:38:15;;;;;;;17.45;13.25;;;22.70;98.20;;;;;;5064773;28;20044;-62
2023/09/11 03:40:45;;;;;;;21.83;13.48;;;22.60;98.20;;;;;;5056063;28;20047;-63
2023/09/11 03:43:12;;;;;;;24.00;14.07;;;22.60;98.30;;;;;;5055969;28;20036;-63
2023/09/11 03:45:40;;;;;;;18.50;12.30;;;22.60;98.30;;;;;;5052068;28;20071;-62
2023/09/11 03:48:06;;;;;;;21.27;11.43;;;22.60;98.30;;;;;;5056196;28;20032;-63
2023/09/11 03:50:31;;;;;;;18.73;13.45;;;22.60;98.40;;;;;;5057786;28;20056;-63
2023/09/11 03:52:57;;;;;;;19.42;12.93;;;22.60;98.40;;;;;;5060891;28;20059;-62
2023/09/11 03:55:23;;;;;;;15.90;12.77;;;22.50;98.40;;;;;;5055770;28;20028;-63
2023/09/11 03:57:49;;;;;;;19.98;14.75;;;22.50;98.50;;;;;;5054462;28;20549;-63
2023/09/11 04:00:15;;;;;;;23.17;13.07;;;22.50;98.40;;;;;;5055496;28;20080;-63
2023/09/11 04:02:42;;;;;;;25.13;14.07;;;22.50;98.50;;;;;;5063156;28;20067;-64
2023/09/11 04:05:08;;;;;;;20.60;14.07;;;22.50;98.50;;;;;;5056927;28;20041;-64
2023/09/11 04:07:34;;;;;;;19.88;14.60;;;22.50;98.50;;;;;;5064734;28;20350;-63
2023/09/11 04:10:00;;;;;;;21.70;13.65;;;22.50;98.50;;;;;;5059129;28;20032;-63
2023/09/11 04:12:26;;;;;;;17.70;14.27;;;22.50;98.60;;;;;;5066427;28;20518;-61
2023/09/11 04:14:51;;;;;;;20.95;13.13;;;22.50;98.60;;;;;;5061528;28;20033;-62
2023/09/11 04:17:17;;;;;;;17.60;13.52;;;22.50;98.60;;;;;;5071586;28;20036;-62
2023/09/11 04:19:43;;;;;;;19.92;13.63;;;22.50;98.60;;;;;;5058997;28;20033;-63
2023/09/11 04:22:10;;;;;;;21.55;12.82;;;22.50;98.70;;;;;;5065634;28;20479;-63
2023/09/11 04:24:35;;;;;;;21.42;13.75;;;22.50;98.70;;;;;;5058688;28;20269;-62
2023/09/11 04:27:02;;;;;;;21.00;13.23;;;22.50;98.60;;;;;;5050697;28;20613;-62
2023/09/11 04:29:31;;;;;;;24.35;13.65;;;22.50;98.60;;;;;;5061286;28;20048;-62
2023/09/11 04:31:57;;;;;;;23.30;13.07;;;22.50;98.70;;;;;;5060911;28;20116;-63
2023/09/11 04:34:22;;;;;;;21.73;12.82;;;22.50;98.60;;;;;;5042089;28;20044;-63
2023/09/11 04:36:48;;;;;;;16.23;11.80;;;22.50;98.60;;;;;;5066640;28;20043;-63
2023/09/11 04:39:14;;;;;;;21.88;13.68;;;22.50;98.60;;;;;;5057432;28;20601;-64
2023/09/11 04:41:40;;;;;;;20.85;14.07;;;22.50;98.60;;;;;;5051445;28;20044;-64
2023/09/11 04:44:06;;;;;;;20.63;12.80;;;22.50;98.60;;;;;;5048956;28;20108;-64
2023/09/11 04:46:31;;;;;;;22.98;14.85;;;22.50;98.70;;;;;;5054638;28;20059;-64
2023/09/11 04:48:57;;;;;;;22.33;12.57;;;22.50;98.70;;;;;;5046392;28;20515;-64
2023/09/11 04:51:25;;;;;;;19.40;13.82;;;22.50;98.70;;;;;;5053778;28;20263;-64
2023/09/11 04:53:52;;;;;;;21.92;13.43;;;22.50;98.70;;;;;;5057564;28;20235;-63
2023/09/11 04:56:17;;;;;;;22.88;14.52;;;22.50;98.70;;;;;;5054016;28;20031;-64
2023/09/11 04:58:43;;;;;;;21.55;13.68;;;22.50;98.60;;;;;;5051288;28;20119;-63
2023/09/11 05:01:09;;;;;;;18.90;12.95;;;22.50;98.60;;;;;;5049688;28;20365;-64
2023/09/11 05:03:34;;;;;;;28.45;13.70;;;22.50;98.90;;;;;;5047680;28;20263;-63
2023/09/11 05:06:00;;;;;;;15.27;12.18;;;22.50;98.60;;;;;;5046487;28;20037;-63
2023/09/11 05:08:26;;;;;;;17.23;14.07;;;22.50;98.70;;;;;;5055029;28;20147;-63
2023/09/11 05:10:52;;;;;;;18.30;13.30;;;22.50;98.70;;;;;;5043873;28;20101;-63
2023/09/11 05:13:18;;;;;;;21.83;13.55;;;22.50;98.80;;;;;;5043359;28;20049;-63
2023/09/11 05:15:44;;;;;;;19.65;14.35;;;22.40;98.80;;;;;;5053639;28;20036;-63
2023/09/11 05:18:11;;;;;;;19.95;13.18;;;22.40;98.80;;;;;;5041590;28;20128;-63
2023/09/11 05:20:37;;;;;;;19.92;13.63;;;22.40;98.90;;;;;;5045437;28;20534;-63
2023/09/11 05:23:05;;;;;;;19.35;13.60;;;22.40;98.90;;;;;;5038565;28;20285;-64
2023/09/11 05:25:31;;;;;;;15.50;12.02;;;;;;;;;;5042643;28;20228;-64
2023/09/11 05:27:57;;;;;;;17.00;12.95;;;;;;;;;;5049717;28;20614;-63
2023/09/11 05:30:23;;;;;;;25.48;13.30;;;;;;;;;;5046073;28;20124;-64
2023/09/11 05:32:52;;;;;;;18.38;12.88;;;;;;;;;;5047548;28;20161;-63
2023/09/11 05:35:19;;;;;;;21.85;13.25;;;22.40;98.90;;;;;;5048573;28;20534;-63
2023/09/11 05:37:45;;;;;;;27.17;12.32;;;22.40;98.90;;;;;;5053180;28;20035;-64
2023/09/11 05:40:11;;;;;;;18.33;14.18;;;22.50;98.90;;;;;;5032968;28;20368;-63
2023/09/11 05:42:37;;;;;;;17.55;13.27;;;22.40;98.90;;;;;;5050959;28;20470;-64
2023/09/11 05:45:03;;;;;;;26.85;13.05;;;22.40;98.90;;;;;;5050971;28;20515;-64
2023/09/11 05:47:29;;;;;;;21.05;12.98;;;22.50;98.90;;;;;;5044987;28;20048;-63
2023/09/11 05:50:00;;;;;;;19.55;13.25;;;22.40;98.90;;;;;;5053217;28;20081;-63
2023/09/11 05:52:27;;;;;;;19.63;13.25;;;22.50;98.90;;;;;;5050814;28;20131;-63
2023/09/11 05:54:53;;;;;;;17.23;12.82;;;22.40;98.90;;;;;;5053388;28;20052;-63
2023/09/11 05:57:18;;;;;;;19.65;13.23;;;22.50;98.90;;;;;;5057543;28;20325;-63
2023/09/11 05:59:45;;;;;;;21.83;14.70;;;22.50;98.90;;;;;;5047043;28;20325;-63
2023/09/11 06:02:11;;;;;;;18.92;13.68;;;22.50;98.90;;;;;;5056947;28;20340;-63
2023/09/11 06:04:37;;;;;;;19.25;13.25;;;22.50;99.00;;;;;;5056730;28;20075;-63
2023/09/11 06:07:03;;;;;;;25.83;12.38;;;22.50;99.00;;;;;;5053311;28;20111;-63
2023/09/11 06:09:30;;;;;;;24.23;14.38;;;22.50;98.90;;;;;;5053490;28;20047;-63
2023/09/11 06:11:55;;;;;;;18.58;13.95;;;22.50;98.90;;;;;;5053672;28;20046;-63
2023/09/11 06:14:21;;;;;;;25.63;14.30;;;22.50;99.00;;;;;;5049560;28;20033;-61
2023/09/11 06:16:47;;;;;;;22.42;12.82;;;22.50;99.00;;;;;;5050529;28;20160;-62
2023/09/11 06:19:13;;;;;;;24.40;15.23;;;22.50;99.00;;;;;;5049672;28;20167;-62
2023/09/11 06:21:38;;;;;;;20.35;13.52;;;22.50;99.00;;;;;;5053071;28;20055;-62
2023/09/11 06:24:05;;;;;;;21.65;14.10;;;22.50;99.00;;;;;;5053634;28;20047;-62
2023/09/11 06:26:31;;;;;;;22.10;13.55;;;22.50;99.10;;;;;;5061154;28;20110;-62
2023/09/11 06:28:57;;;;;;;21.55;14.80;;;22.60;99.10;;;;;;5046371;28;20235;-62
2023/09/11 06:31:23;;;;;;;20.38;14.80;;;22.50;99.10;;;;;;5061937;28;20040;-62
2023/09/11 06:33:49;;;;;;;18.13;14.30;;;22.60;99.20;;;;;;5043611;28;20041;-62
2023/09/11 06:36:15;;;;;;;20.17;14.05;;;22.60;99.20;;;;;;5056328;28;20044;-64
2023/09/11 06:38:40;;;;;;;19.92;13.50;;;22.60;99.20;;;;;;5046666;28;20147;-63
2023/09/11 06:41:07;;;;;;;27.23;15.70;;;;;;;;;;5047698;28;20425;-63
2023/09/11 06:43:33;;;;;;;24.25;14.80;;;;;;;;;;5038685;28;20135;-62
2023/09/11 06:45:59;;;;;;;16.55;12.65;;;;;;;;;;5051019;28;20731;-63
2023/09/11 06:48:26;;;;;;;19.38;13.35;;;;;;;;;;5046437;28;20553;-62
2023/09/11 06:50:53;;;;;;;20.50;15.77;;;;;;;;;;5052277;28;20135;-62
2023/09/11 06:53:20;;;;;;;20.08;14.73;;;;;;;;;;5047853;28;20044;-63
2023/09/11 06:55:47;;;;;;;26.60;14.05;;;22.60;99.20;;;;;;5058980;28;20075;-62
2023/09/11 06:58:13;;;;;;;23.17;13.73;;;22.90;99.20;;;;;;5053922;28;20056;-62
2023/09/11 07:00:42;;;;;;;17.05;13.60;;;;;;;;;;5055347;28;20207;-62
2023/09/11 07:03:09;;;;;;;20.73;14.02;;;;;;;;;;5055604;28;20048;-63
2023/09/11 07:05:36;;;;;;;19.42;13.25;;;;;;;;;;5050754;28;20036;-63
2023/09/11 07:08:03;;;;;;;18.73;14.13;;;;;;;;;;5052504;28;20068;-63
2023/09/11 07:10:29;;;;;;;21.50;13.65;;;;;;;;;;5045407;28;20741;-64
2023/09/11 07:12:55;;;;;;;18.50;11.48;;;;;;;;;;5049270;28;20071;-63
2023/09/11 07:15:21;;;;;;;16.65;11.82;;;;;;;;;;5049697;28;20367;-64
2023/09/11 07:17:48;;;;;;;19.33;13.30;;;;;;;;;;5049968;28;21068;-63
2023/09/11 07:20:15;;;;;;;15.18;10.48;;;;;;;;;;5052298;28;20107;-63
2023/09/11 07:22:41;;;;;;;15.35;12.70;;;;;;;;;;5050283;28;20097;-63
2023/09/11 07:25:12;;;;;;;21.05;12.18;;;;;;;;;;5059398;28;20461;-64
2023/09/11 07:27:38;;;;;;;19.55;13.88;;;;;;;;;;5056105;28;20555;-63
2023/09/11 07:30:05;;;;;;;18.27;13.63;;;;;;;;;;5058702;28;20135;-63
2023/09/11 07:32:31;;;;;;;14.35;12.75;;;;;;;;;;5050463;28;20478;-63
2023/09/11 07:34:58;;;;;;;20.65;13.98;;;;;;;;;;5047204;28;20036;-63
2023/09/11 07:37:24;;;;;;;20.65;12.68;;;;;;;;;;5045878;28;20279;-63
2023/09/11 07:39:50;;;;;;;13.77;10.75;;;22.90;99.20;;;;;;5051805;28;20041;-63
2023/09/11 07:42:16;;;;;;;19.83;12.65;;;;;;;;;;5054802;28;20646;-63
2023/09/11 07:44:43;;;;;;;21.45;14.75;;;;;;;;;;5055774;28;20100;-63
2023/09/11 07:47:09;;;;;;;18.63;13.25;;;;;;;;;;5047396;28;20701;-63
2023/09/11 07:49:35;;;;;;;17.75;12.68;;;23.30;98.90;;;;;;5059400;28;20131;-63
2023/09/11 07:52:01;;;;;;;16.52;12.73;;;23.50;99.10;;;;;;5055570;28;20346;-64
2023/09/11 07:54:27;;;;;;;18.02;12.70;;;23.50;99.10;;;;;;5056510;28;20519;-64
2023/09/11 07:56:53;;;;;;;18.55;13.25;;;23.50;99.00;;;;;;5056133;28;20142;-64
2023/09/11 07:59:19;;;;;;;18.35;11.77;;;23.60;99.10;;;;;;5058976;28;20044;-62
2023/09/11 08:01:45;;;;;;;16.08;12.35;;;23.60;99.00;;;;;;5057268;28;20524;-63
2023/09/11 08:04:10;;;;;;;17.08;13.23;;;23.70;99.00;;;;;;5061320;28;20090;-63
2023/09/11 08:06:36;;;;;;;19.58;12.57;;;23.70;99.00;;;;;;5053134;28;20047;-64
2023/09/11 08:09:03;;;;;;;18.00;11.40;;;23.80;99.10;;;;;;5051202;28;20095;-63
2023/09/11 08:11:31;;;;;;;12.80;11.48;;;23.80;99.10;;;;;;5052222;28;20036;-63
2023/09/11 08:13:57;;;;;;;17.52;11.70;;;23.90;99.10;;;;;;5044518;28;20392;-63
2023/09/11 08:16:23;;;;;;;18.83;12.73;;;23.90;99.00;;;;;;5052269;28;20048;-63
2023/09/11 08:18:49;;;;;;;17.73;12.77;;;24.00;99.00;;;;;;5057571;28;20087;-63
2023/09/11 08:21:16;;;;;;;14.05;11.13;;;24.00;99.00;;;;;;5051739;28;20147;-63
2023/09/11 08:23:42;;;;;;;18.02;11.27;;;24.10;98.90;;;;;;5055475;28;20636;-63
2023/09/11 08:26:08;;;;;;;17.88;10.25;;;24.10;98.80;;;;;;5057710;28;20044;-63
2023/09/11 08:28:34;;;;;;;18.10;11.77;;;24.20;98.80;;;;;;5068903;28;20267;-63
2023/09/11 08:31:00;;;;;;;22.52;12.30;;;24.30;98.70;;;;;;5052375;28;20053;-63
2023/09/11 08:33:26;;;;;;;19.20;13.35;;;24.40;98.70;;;;;;5054447;28;20523;-63
2023/09/11 08:35:52;;;;;;;17.02;13.07;;;24.40;98.60;;;;;;5056132;28;20067;-63
2023/09/11 08:38:18;;;;;;;19.55;14.45;;;24.50;98.80;;;;;;5063114;28;20072;-64
2023/09/11 08:40:44;;;;;;;17.55;12.80;;;24.50;98.50;;;;;;5055179;28;20439;-63
2023/09/11 08:43:10;;;;;;;18.38;13.07;;;24.60;98.40;;;;;;5055664;28;20198;-64
2023/09/11 08:45:37;;;;;;;17.00;12.50;;;;;;;;;;5050688;28;20052;-64
2023/09/11 08:48:08;;;;;;;18.08;13.98;;;;;;;;;;5052695;28;20040;-64
2023/09/11 08:50:35;;;;;;;18.00;13.45;;;;;;;;;;5049418;28;20322;-64
2023/09/11 08:53:02;;;;;;;18.95;13.60;;;;;;;;;;5060227;28;20220;-64
2023/09/11 08:55:31;;;;;;;18.02;12.15;;;24.70;98.40;;;;;;5052322;28;20068;-64
2023/09/11 08:58:02;;;;;;;21.95;13.00;;;25.10;98.30;;;;;;5055899;28;20121;-64
2023/09/11 09:00:28;;;;;;;16.27;12.85;;;25.10;98.20;;;;;;5056414;28;20040;-64
2023/09/11 09:02:53;;;;;;;15.38;11.55;;;25.30;98.20;;;;;;5059260;28;20051;-64
2023/09/11 09:05:20;;;;;;;15.88;11.82;;;25.30;98.10;;;;;;5053957;28;20044;-64
2023/09/11 09:07:47;;;;;;;20.90;11.55;;;25.40;98.00;;;;;;5055544;28;20789;-64
2023/09/11 09:10:15;;;;;;;14.38;10.30;;;;;;;;;;5058516;28;20631;-64
2023/09/11 09:12:43;;;;;;;14.68;11.85;;;;;;;;;;5055110;28;20123;-62
2023/09/11 09:15:09;;;;;;;14.05;10.02;;;;;;;;;;5050415;28;20051;-62
2023/09/11 09:17:35;;;;;;;14.63;11.30;;;;;;;;;;5054131;28;20079;-62
2023/09/11 09:20:03;;;;;;;14.02;10.52;;;;;;;;;;5053916;28;20070;-63
2023/09/11 09:22:29;;;;;;;12.25;9.43;;;;;;;;;;5062946;28;20044;-63
2023/09/11 09:24:56;;;;;;;13.50;9.43;;;;;;;;;;5056599;28;20509;-63
2023/09/11 09:27:24;;;;;;;14.32;11.05;;;;;;;;;;5058175;28;20040;-63
2023/09/11 09:29:51;;;;;;;13.68;9.63;;;;;;;;;;5056760;28;20105;-63
2023/09/11 09:32:17;;;;;;;16.23;10.27;;;;;;;;;;5036983;28;20282;-63
2023/09/11 09:34:49;;;;;;;11.52;9.38;;;;;;;;;;5047217;28;20073;-63
2023/09/11 09:37:19;;;;;;;13.02;9.70;;;;;;;;;;5058952;28;20235;-63
2023/09/11 09:39:48;;;;;;;11.50;10.18;;;;;;;;;;5060694;28;20041;-63
2023/09/11 09:42:14;;;;;;;16.70;11.65;;;;;;;;;;5051600;28;20299;-63
2023/09/11 09:44:52;;;;;;;12.77;9.45;;;;;;;;;;5060723;28;20059;-63
2023/09/11 09:47:19;;;;;;;17.02;11.00;;;;;;;;;;5069516;28;20044;-63
2023/09/11 09:49:45;;;;;;;15.18;11.20;;;;;;;;;;5053744;28;20101;-63
2023/09/11 09:52:12;;;;;;;12.90;9.13;;;;;;;;;;5051520;28;20040;-63
2023/09/11 09:54:43;;;;;;;11.65;9.98;;;;;;;;;;5052000;28;20087;-63
2023/09/11 09:57:10;;;;;;;12.05;9.80;;;;;;;;;;5055475;28;20059;-63
2023/09/11 09:59:36;;;;;;;12.00;9.48;;;;;;;;;;5047446;28;20055;-62
2023/09/11 10:02:03;;;;;;;14.40;9.20;;;;;;;;;;5057673;28;20120;-63
2023/09/11 10:04:31;;;;;;;19.75;13.57;;;;;;;;;;5060241;28;20138;-63
2023/09/11 10:06:58;;;;;;;15.43;11.88;;;;;;;;;;5060479;28;20310;-63
2023/09/11 10:09:25;;;;;;;13.65;9.75;;;;;;;;;;5062998;28;20123;-63
2023/09/11 10:11:51;;;;;;;12.63;8.98;;;25.50;97.90;;;;;;5055095;28;20045;-63
2023/09/11 10:14:18;;;;;;;18.67;9.77;;;27.80;96.20;;;;;;5047697;28;20032;-63
2023/09/11 10:16:46;;;;;;;12.57;9.57;;;27.80;96.10;;;;;;5051133;28;20040;-63
2023/09/11 10:19:12;;;;;;;12.35;10.10;;;27.90;96.00;;;;;;5063192;28;20060;-63
2023/09/11 10:21:38;;;;;;;15.40;11.00;;;28.00;96.00;;;;;;5053353;28;20266;-63
2023/09/11 10:24:06;;;;;;;10.07;8.82;;;28.10;95.70;;;;;;5062976;28;20122;-63
2023/09/11 10:26:48;;;;;;;18.00;10.40;;;28.10;95.60;;;;;;5054699;28;20096;-63
2023/09/11 10:29:46;;;;;;;10.82;9.25;;;28.20;95.40;;;;;;5057731;28;20040;-63
2023/09/11 10:32:18;;;;;;;12.40;8.65;;;;;;;;;;5055562;28;20517;-63
2023/09/11 10:34:45;;;;;;;11.02;8.68;;;;;;;;;;5054544;28;20410;-63
2023/09/11 10:37:12;;;;;;;12.88;8.50;;;;;;;;;;5050762;28;20687;-63
2023/09/11 10:39:38;;;;;;;9.98;7.32;;;;;;;;;;5050224;28;20121;-63
2023/09/11 10:42:05;;;;;;;8.50;6.72;;;;;;;;;;5037100;28;20045;-63
2023/09/11 10:44:34;;;;;;;15.15;7.18;;;;;;;;;;5054379;28;20304;-63
2023/09/11 10:47:02;;;;;;;9.38;6.65;;;;;;;;;;5069518;28;20059;-63
2023/09/11 10:49:33;;;;;;;9.32;6.03;;;;;;;;;;5054016;28;20218;-63
2023/09/11 10:51:59;;;;;;;9.57;5.57;;;;;;;;;;5058364;28;20059;-63
2023/09/11 10:54:25;;;;;;;8.73;5.43;;;;;;;;;;5053622;28;20075;-63
2023/09/11 10:56:52;;;;;;;9.90;6.03;;;;;;;;;;5050711;28;20213;-63
2023/09/11 10:59:18;;;;;;;6.00;5.40;;;;;;;;;;5056995;28;20051;-63
2023/09/11 11:01:48;;;;;;;9.30;6.03;;;;;;;;;;5059472;28;20039;-64
2023/09/11 11:04:15;;;;;;;9.38;6.13;;;;;;;;;;5051836;28;20094;-64
2023/09/11 11:06:53;;;;;;;7.45;5.05;;;;;;;;;;5054473;28;20323;-63
2023/09/11 11:09:25;;;;;;;11.88;5.85;;;;;;;;;;5044229;28;20321;-63
2023/09/11 11:11:52;;;;;;;8.05;4.97;;;;;;;;;;5057535;28;20243;-63
2023/09/11 11:14:21;;;;;;;7.38;5.05;;;;;;;;;;5058889;28;20044;-64
2023/09/11 11:16:59;;;;;;;8.18;4.95;;;;;;;;;;5062413;28;20451;-63
2023/09/11 11:19:29;;;;;;;7.20;5.50;;;;;;;;;;5061103;28;20335;-63
2023/09/11 11:21:56;;;;;;;8.50;5.70;;;;;;;;;;5061533;28;20707;-64
2023/09/11 11:24:26;;;;;;;8.00;5.10;;;;;;;;;;5061242;28;20135;-66
2023/09/11 11:26:58;;;;;;;8.07;5.50;;;;;;;;;;5072755;28;20609;-65
2023/09/11 11:29:26;;;;;;;6.78;4.90;;;;;;;;;;5070483;28;20032;-65
2023/09/11 11:31:53;;;;;;;8.77;5.50;;;;;;;;;;5063763;28;20036;-68
2023/09/11 11:34:23;;;;;;;13.23;5.75;;;;;;;;;;5052054;28;20036;-66
2023/09/11 11:36:50;;;;;;;6.68;5.00;;;;;;;;;;5054086;28;20036;-66
2023/09/11 11:39:16;;;;;;;16.13;6.05;;;28.30;95.40;;;;;;5059089;28;20069;-66
2023/09/11 11:41:43;;;;;;;9.85;5.53;;;30.10;90.60;;;;;;5059010;28;20074;-66
2023/09/11 11:44:09;;;;;;;8.70;4.60;;;30.10;90.50;;;;;;5056741;28;20123;-66
2023/09/11 11:46:35;;;;;;;9.20;4.47;;;30.10;90.40;;;;;;5060970;28;20219;-66
2023/09/11 11:49:01;;;;;;;7.10;3.70;;;30.20;90.10;;;;;;5061912;28;20044;-66
2023/09/11 11:51:30;;;;;;;9.23;4.60;;;30.20;89.20;;;;;;5064480;28;20068;-67
2023/09/11 11:53:55;;;;;;;10.25;4.95;;;30.20;88.70;;;;;;5066715;28;20089;-66
2023/09/11 11:56:21;;;;;;;6.70;4.15;;;30.20;88.80;;;;;;5063637;28;20048;-66
2023/09/11 11:58:49;;;;;;;9.70;5.25;;;30.20;88.50;;;;;;5055521;28;20228;-66
2023/09/11 12:01:15;;;;;;;5.72;4.65;;;30.30;88.60;;;;;;5061836;28;20062;-67
2023/09/11 12:03:51;;;;;;;7.90;5.28;;;30.40;88.80;;;;;;5069007;28;20675;-66
2023/09/11 12:06:19;;;;;;;7.32;5.25;;;30.40;89.10;;;;;;5071605;28;20379;-67
2023/09/11 12:08:46;;;;;;;8.63;5.10;;;30.50;88.60;;;;;;5055643;28;20035;-66
2023/09/11 12:11:12;;;;;;;10.07;6.32;;;30.50;88.40;;;;;;5057851;28;20094;-66
2023/09/11 12:13:38;;;;;;;10.07;5.32;;;30.50;88.50;;;;;;5031598;28;20037;-67
2023/09/11 12:16:04;;;;;;;8.43;5.55;;;30.60;88.40;;;;;;5052966;28;20116;-66
2023/09/11 12:18:30;;;;;;;8.65;5.25;;;30.60;88.50;;;;;;5060300;28;20150;-65
2023/09/11 12:21:07;;;;;;;9.57;5.43;;;30.70;88.50;;;;;;5059338;28;20412;-67
2023/09/11 12:23:34;;;;;;;8.70;6.35;;;30.70;88.60;;;;;;5072242;28;20066;-66
2023/09/11 12:26:04;;;;;;;9.82;5.78;;;30.70;88.20;;;;;;5061740;28;20256;-66
2023/09/11 12:28:30;;;;;;;7.78;5.55;;;30.70;88.00;;;;;;5053297;28;20044;-66
2023/09/11 12:30:56;;;;;;;7.97;5.10;;;30.70;88.40;;;;;;5046235;28;20702;-65
2023/09/11 12:33:31;;;;;;;10.57;6.18;;;30.80;88.50;;;;;;5056090;28;20032;-67
2023/09/11 12:36:00;;;;;;;10.18;5.00;;;30.80;88.70;;;;;;5055419;28;20297;-66
2023/09/11 12:38:27;;;;;;;6.63;4.68;;;30.90;88.70;;;;;;5062122;28;20040;-66
2023/09/11 12:40:52;;;;;;;7.75;4.55;;;31.00;88.80;;;;;;5066356;28;20045;-66
2023/09/11 12:43:20;;;;;;;6.90;5.35;;;31.10;88.70;;;;;;5049321;28;20123;-66
2023/09/11 12:45:46;;;;;;;7.38;5.72;;;31.10;88.70;;;;;;5054756;28;20340;-66
2023/09/11 12:48:12;;;;;;;8.90;5.97;;;31.20;88.70;;;;;;5056969;28;20579;-66
2023/09/11 12:50:39;;;;;;;10.90;6.38;;;31.20;88.60;;;;;;5060753;28;20282;-65
2023/09/11 12:53:06;;;;;;;12.77;7.70;;;31.20;87.80;;;;;;5060564;28;20173;-66
2023/09/11 12:55:32;;;;;;;11.02;7.30;;;31.20;87.40;;;;;;5063166;28;20159;-66
2023/09/11 12:57:59;;;;;;;9.23;5.30;;;;;;;;;;5055137;28;20519;-67
2023/09/11 13:00:32;;;;;;;10.68;7.28;;;;;;;;;;5060326;28;20062;-66
2023/09/11 13:02:59;;;;;;;9.73;5.75;;;;;;;;;;5063157;28;20032;-67
2023/09/11 13:05:25;;;;;;;8.13;5.90;;;31.20;87.40;;;;;;5046558;28;20195;-66
2023/09/11 13:07:51;;;;;;;10.57;7.38;;;31.30;87.10;;;;;;5066823;28;20480;-67